createdAt,value
2019-03-09T00:02:46.546Z,24.43
2019-03-09T00:05:48.583Z,23.10
2019-03-09T00:08:50.545Z,20.23
2019-03-09T00:11:52.447Z,22.33
2019-03-09T00:14:55.243Z,21.07
2019-03-09T00:17:57.156Z,20.73
2019-03-09T00:20:59.004Z,25.27
2019-03-09T00:24:17.801Z,24.87
2019-03-09T00:27:29.443Z,21.43
2019-03-09T00:30:39.470Z,22.23
2019-03-09T00:33:41.352Z,22.73
2019-03-09T00:36:43.314Z,25.07
2019-03-09T00:39:45.508Z,24.43
2019-03-09T00:42:47.479Z,25.47
2019-03-09T00:45:49.400Z,19.77
2019-03-09T00:48:52.906Z,24.57
2019-03-09T00:51:54.855Z,21.90
2019-03-09T00:54:56.729Z,24.13
2019-03-09T00:57:58.685Z,18.67
2019-03-09T01:01:00.581Z,23.23
2019-03-09T01:04:02.739Z,24.27
2019-03-09T01:07:04.715Z,23.50
2019-03-09T01:10:12.378Z,21.13
2019-03-09T01:13:14.300Z,25.10
2019-03-09T01:16:16.220Z,22.73
2019-03-09T01:19:18.136Z,23.17
2019-03-09T01:22:20.056Z,23.33
2019-03-09T01:25:21.908Z,26.53
2019-03-09T01:28:23.800Z,22.03
2019-03-09T01:31:25.765Z,24.53
2019-03-09T01:34:27.687Z,24.37
2019-03-09T01:37:29.591Z,25.27
2019-03-09T01:40:31.542Z,24.67
2019-03-09T01:43:33.441Z,19.63
2019-03-09T01:46:35.336Z,20.67
2019-03-09T01:49:37.254Z,24.70
2019-03-09T01:52:39.719Z,23.93
2019-03-09T01:55:41.578Z,21.47
2019-03-09T01:58:43.489Z,24.53
2019-03-09T02:01:45.413Z,20.50
2019-03-09T02:04:47.387Z,22.50
2019-03-09T02:07:49.333Z,21.40
2019-03-09T02:10:51.295Z,22.30
2019-03-09T02:13:53.173Z,20.77
2019-03-09T02:16:55.129Z,24.37
2019-03-09T02:19:57.014Z,20.50
2019-03-09T02:22:58.972Z,25.07
2019-03-09T02:26:00.905Z,21.53
2019-03-09T02:29:03.091Z,21.30
2019-03-09T02:32:05.024Z,21.83
2019-03-09T02:35:10.579Z,22.60
2019-03-09T02:38:17.152Z,20.93
2019-03-09T02:41:19.059Z,19.73
2019-03-09T02:44:20.968Z,19.37
2019-03-09T02:47:22.882Z,19.33
2019-03-09T02:50:24.788Z,21.80
2019-03-09T02:53:26.636Z,23.53
2019-03-09T02:56:28.579Z,20.33
2019-03-09T02:59:31.569Z,19.57
2019-03-09T03:02:35.292Z,20.90
2019-03-09T03:05:37.206Z,23.50
2019-03-09T03:08:39.260Z,20.53
2019-03-09T03:11:41.140Z,20.87
2019-03-09T03:14:44.502Z,19.03
2019-03-09T03:17:46.372Z,22.43
2019-03-09T03:20:48.257Z,21.83
2019-03-09T03:23:50.195Z,23.23
2019-03-09T03:26:52.097Z,23.70
2019-03-09T03:29:54.038Z,23.60
2019-03-09T03:32:57.709Z,24.37
2019-03-09T03:35:59.703Z,22.17
2019-03-09T03:39:05.436Z,22.20
2019-03-09T03:42:07.568Z,21.27
2019-03-09T03:45:13.905Z,23.67
2019-03-09T03:48:15.791Z,23.83
2019-03-09T03:51:17.696Z,23.77
2019-03-09T03:54:19.628Z,23.53
2019-03-09T03:57:21.537Z,20.37
2019-03-09T04:00:23.483Z,21.50
2019-03-09T04:03:27.401Z,17.73
2019-03-09T04:06:29.951Z,17.33
2019-03-09T04:09:32.792Z,18.03
2019-03-09T04:12:34.838Z,17.97
2019-03-09T04:15:36.786Z,16.60
2019-03-09T04:18:38.701Z,16.57
2019-03-09T04:21:40.621Z,16.07
2019-03-09T04:24:42.507Z,16.33
2019-03-09T04:27:44.431Z,16.30
2019-03-09T04:30:46.288Z,15.17
2019-03-09T04:33:48.310Z,16.60
2019-03-09T04:36:56.541Z,17.20
2019-03-09T04:39:58.570Z,17.13
2019-03-09T04:43:00.450Z,15.97
2019-03-09T04:46:02.523Z,18.40
2019-03-09T04:49:04.451Z,14.30
2019-03-09T04:52:06.333Z,15.67
2019-03-09T04:55:08.782Z,17.67
2019-03-09T04:58:10.694Z,15.97
2019-03-09T05:01:13.003Z,13.57
2019-03-09T05:04:28.298Z,12.73
2019-03-09T05:07:30.254Z,13.67
2019-03-09T05:10:44.852Z,13.50
2019-03-09T05:13:46.919Z,15.40
2019-03-09T05:16:48.778Z,13.23
2019-03-09T05:19:50.791Z,13.13
2019-03-09T05:22:52.723Z,16.73
2019-03-09T05:25:54.686Z,13.10
2019-03-09T05:28:56.589Z,12.93
2019-03-09T05:31:58.556Z,13.57
2019-03-09T05:35:00.565Z,11.00
2019-03-09T05:38:03.203Z,12.27
2019-03-09T05:41:05.119Z,10.20
2019-03-09T05:44:07.055Z,11.40
2019-03-09T05:47:09.002Z,11.03
2019-03-09T05:50:10.951Z,10.17
2019-03-09T05:53:15.139Z,13.33
2019-03-09T05:56:17.094Z,11.77
2019-03-09T05:59:18.988Z,9.27
2019-03-09T06:02:20.911Z,11.17
2019-03-09T06:05:30.108Z,11.47
2019-03-09T06:08:32.181Z,11.67
2019-03-09T06:11:34.095Z,8.77
2019-03-09T06:14:36.019Z,10.37
2019-03-09T06:17:37.949Z,10.93
2019-03-09T06:20:39.827Z,15.20
2019-03-09T06:23:41.770Z,10.27
2019-03-09T06:26:43.681Z,8.53
2019-03-09T06:29:45.656Z,10.27
2019-03-09T06:33:22.320Z,7.57
2019-03-09T06:36:34.076Z,12.03
2019-03-09T06:39:35.968Z,8.77
2019-03-09T06:42:44.116Z,9.70
2019-03-09T06:45:46.004Z,10.83
2019-03-09T06:48:47.900Z,7.73
2019-03-09T06:51:49.828Z,10.10
2019-03-09T06:54:51.751Z,6.53
2019-03-09T06:57:53.658Z,8.77
2019-03-09T07:00:57.203Z,11.17
2019-03-09T07:03:59.139Z,6.00
2019-03-09T07:07:01.153Z,8.77
2019-03-09T07:10:04.658Z,13.60
2019-03-09T07:13:07.174Z,7.17
2019-03-09T07:16:11.515Z,4.57
2019-03-09T07:19:13.449Z,9.10
2019-03-09T07:22:15.354Z,5.47
2019-03-09T07:25:17.299Z,9.13
2019-03-09T07:28:19.204Z,6.37
2019-03-09T07:31:21.456Z,8.50
2019-03-09T07:34:25.416Z,5.00
2019-03-09T07:37:27.524Z,9.00
2019-03-09T07:40:29.474Z,10.33
2019-03-09T07:43:31.465Z,6.17
2019-03-09T07:46:33.387Z,9.50
2019-03-09T07:49:35.262Z,7.93
2019-03-09T07:52:37.101Z,10.43
2019-03-09T07:55:39.054Z,7.57
2019-03-09T07:58:40.984Z,6.60
2019-03-09T08:01:42.940Z,7.30
2019-03-09T08:04:44.865Z,4.33
2019-03-09T08:07:47.478Z,10.17
2019-03-09T08:10:49.393Z,7.57
2019-03-09T08:13:51.393Z,6.97
2019-03-09T08:16:53.278Z,10.90
2019-03-09T08:19:55.199Z,6.60
2019-03-09T08:22:57.116Z,5.60
2019-03-09T08:25:59.051Z,9.70
2019-03-09T08:29:00.912Z,8.33
2019-03-09T08:32:02.857Z,6.40
2019-03-09T08:35:06.666Z,9.77
2019-03-09T08:38:08.723Z,7.17
2019-03-09T08:41:10.617Z,14.33
2019-03-09T08:44:12.644Z,8.83
2019-03-09T08:47:15.984Z,10.60
2019-03-09T08:50:19.787Z,9.83
2019-03-09T08:53:21.708Z,6.93
2019-03-09T08:56:23.622Z,6.43
2019-03-09T08:59:25.576Z,8.50
2019-03-09T09:02:27.486Z,10.07
2019-03-09T09:05:29.427Z,9.23
2019-03-09T09:08:31.346Z,13.07
2019-03-09T09:11:33.261Z,5.13
2019-03-09T09:14:35.279Z,6.20
2019-03-09T09:17:37.379Z,6.80
2019-03-09T09:20:39.306Z,4.80
2019-03-09T09:23:41.255Z,4.67
2019-03-09T09:26:43.193Z,4.60
2019-03-09T09:29:45.176Z,4.77
2019-03-09T09:32:47.047Z,3.57
2019-03-09T09:35:49.003Z,10.77
2019-03-09T09:38:51.060Z,5.50
2019-03-09T09:41:53.027Z,6.90
2019-03-09T09:44:54.987Z,5.67
2019-03-09T09:47:57.018Z,7.77
2019-03-09T09:50:58.899Z,7.43
2019-03-09T09:54:00.877Z,13.07
2019-03-09T09:57:02.800Z,6.53
2019-03-09T10:00:11.237Z,6.23
2019-03-09T10:03:13.109Z,6.33
2019-03-09T10:06:15.153Z,6.37
2019-03-09T10:09:18.018Z,4.30
2019-03-09T10:12:19.953Z,3.27
2019-03-09T10:15:29.274Z,3.53
2019-03-09T10:18:31.279Z,4.67
2019-03-09T10:21:33.222Z,6.13
2019-03-09T10:24:35.136Z,4.57
2019-03-09T10:27:37.038Z,3.97
2019-03-09T10:30:39.010Z,3.57
2019-03-09T10:33:40.947Z,3.67
2019-03-09T10:36:42.954Z,4.47
2019-03-09T10:39:45.040Z,3.33
2019-03-09T10:42:47.086Z,5.40
2019-03-09T10:45:49.160Z,7.07
2019-03-09T10:48:51.062Z,4.33
2019-03-09T10:51:53.953Z,4.13
2019-03-09T10:54:55.866Z,6.73
2019-03-09T10:57:57.852Z,6.17
2019-03-09T11:00:59.748Z,4.33
2019-03-09T11:04:01.725Z,6.33
2019-03-09T11:07:03.719Z,3.53
2019-03-09T11:10:06.475Z,3.13
2019-03-09T11:13:08.393Z,4.23
2019-03-09T11:16:10.745Z,4.10
2019-03-09T11:19:13.254Z,3.53
2019-03-09T11:22:15.129Z,5.00
2019-03-09T11:25:17.031Z,4.20
2019-03-09T11:28:18.955Z,4.90
2019-03-09T11:31:20.915Z,4.70
2019-03-09T11:34:22.756Z,3.40
2019-03-09T11:37:24.726Z,3.47
2019-03-09T11:40:26.964Z,4.27
2019-03-09T11:43:28.882Z,4.90
2019-03-09T11:46:30.890Z,4.00
2019-03-09T11:49:32.771Z,4.80
2019-03-09T11:52:34.684Z,6.80
2019-03-09T11:55:36.604Z,4.73
2019-03-09T11:58:38.513Z,5.47
2019-03-09T12:01:40.415Z,4.37
2019-03-09T12:04:46.631Z,5.53
2019-03-09T12:07:47.114Z,6.33
2019-03-09T12:10:48.979Z,4.63
2019-03-09T12:13:51.039Z,5.63
2019-03-09T12:16:53.037Z,4.90
2019-03-09T12:19:55.225Z,4.90
2019-03-09T12:23:01.654Z,5.77
2019-03-09T12:26:03.879Z,4.57
2019-03-09T12:29:05.756Z,4.50
2019-03-09T12:32:07.689Z,5.27
2019-03-09T12:35:09.659Z,5.10
2019-03-09T12:38:11.625Z,4.87
2019-03-09T12:41:13.586Z,7.40
2019-03-09T12:44:15.652Z,4.93
2019-03-09T12:47:19.009Z,6.03
2019-03-09T12:50:22.243Z,6.63
2019-03-09T12:53:24.154Z,5.27
2019-03-09T12:56:26.040Z,5.80
2019-03-09T12:59:27.970Z,5.50
2019-03-09T13:02:29.860Z,5.80
2019-03-09T13:05:31.757Z,5.57
2019-03-09T13:08:33.634Z,5.37
2019-03-09T13:11:35.575Z,5.67
2019-03-09T13:14:37.453Z,4.67
2019-03-09T13:17:39.486Z,5.37
2019-03-09T13:20:41.458Z,5.83
2019-03-09T13:23:43.349Z,4.13
2019-03-09T13:26:45.312Z,8.53
2019-03-09T13:29:47.193Z,5.60
2019-03-09T13:32:49.260Z,4.13
2019-03-09T13:35:51.195Z,5.97
2019-03-09T13:38:53.141Z,3.57
2019-03-09T13:41:55.165Z,6.97
2019-03-09T13:44:57.042Z,4.00
2019-03-09T13:47:59.162Z,4.33
2019-03-09T13:51:01.094Z,6.43
2019-03-09T13:54:03.028Z,4.77
2019-03-09T13:57:05.033Z,4.20
2019-03-09T14:00:12.831Z,4.13
2019-03-09T14:03:14.803Z,6.67
2019-03-09T14:06:16.778Z,6.43
2019-03-09T14:09:18.731Z,4.50
2019-03-09T14:12:20.640Z,7.03
2019-03-09T14:15:22.650Z,8.47
2019-03-09T14:18:24.719Z,7.70
2019-03-09T14:21:26.758Z,9.27
2019-03-09T14:24:28.709Z,7.93
2019-03-09T14:27:30.742Z,7.53
2019-03-09T14:30:34.382Z,6.33
2019-03-09T14:33:36.250Z,5.10
2019-03-09T14:36:38.244Z,5.07
2019-03-09T14:39:40.146Z,5.40
2019-03-09T14:42:44.057Z,5.03
2019-03-09T14:45:46.057Z,6.80
2019-03-09T14:48:48.156Z,5.63
2019-03-09T14:51:50.157Z,6.23
2019-03-09T14:54:52.227Z,5.80
2019-03-09T14:57:54.129Z,6.67
2019-03-09T15:00:56.035Z,7.67
2019-03-09T15:03:58.012Z,9.00
2019-03-09T15:07:07.699Z,7.40
2019-03-09T15:10:10.986Z,6.43
2019-03-09T15:13:12.999Z,7.43
2019-03-09T15:16:15.039Z,5.37
2019-03-09T15:19:17.730Z,5.83
2019-03-09T15:22:19.786Z,6.87
2019-03-09T15:25:21.780Z,5.67
2019-03-09T15:28:24.346Z,9.60
2019-03-09T15:31:26.263Z,10.80
2019-03-09T15:34:28.247Z,8.80
2019-03-09T15:37:30.118Z,11.73
2019-03-09T15:40:32.189Z,4.67
2019-03-09T15:43:34.296Z,6.00
2019-03-09T15:46:36.263Z,7.57
2019-03-09T15:49:38.392Z,8.17
2019-03-09T15:52:40.389Z,8.50
2019-03-09T15:55:45.135Z,14.63
2019-03-09T15:58:47.097Z,5.53
2019-03-09T16:01:49.006Z,2.60
2019-03-09T16:04:50.936Z,3.47
2019-03-09T16:07:53.001Z,7.43
2019-03-09T16:10:54.936Z,4.77
2019-03-09T16:13:56.876Z,8.30
2019-03-09T16:17:02.420Z,12.77
2019-03-09T16:20:09.139Z,13.40
2019-03-09T16:23:11.238Z,13.03
2019-03-09T16:26:13.192Z,13.20
2019-03-09T16:29:15.851Z,9.90
2019-03-09T16:32:18.535Z,8.47
2019-03-09T16:35:20.551Z,11.63
2019-03-09T16:38:23.121Z,6.77
2019-03-09T16:41:26.876Z,12.80
2019-03-09T16:44:31.191Z,9.37
2019-03-09T16:47:33.092Z,10.93
2019-03-09T16:50:35.070Z,10.73
2019-03-09T16:53:37.005Z,4.77
2019-03-09T16:56:38.960Z,6.80
2019-03-09T16:59:40.949Z,7.97
2019-03-09T17:02:42.972Z,3.07
2019-03-09T17:05:46.149Z,7.67
2019-03-09T17:08:48.093Z,20.47
2019-03-09T17:11:52.397Z,2.53
2019-03-09T17:14:54.262Z,4.10
2019-03-09T17:17:58.041Z,1.53
2019-03-09T17:21:00.135Z,1.50
2019-03-09T17:24:02.083Z,0.73
2019-03-09T17:27:03.997Z,1.50
2019-03-09T17:30:17.485Z,1.07
2019-03-09T17:33:19.455Z,4.93
2019-03-09T17:36:21.345Z,3.10
2019-03-09T17:39:23.606Z,1.83
2019-03-09T17:42:25.466Z,3.07
2019-03-09T17:45:27.464Z,2.20
2019-03-09T17:48:29.415Z,1.60
2019-03-09T17:51:33.975Z,3.60
2019-03-09T17:54:35.879Z,1.77
2019-03-09T17:57:37.870Z,1.17
2019-03-09T18:00:45.075Z,1.43
2019-03-09T18:03:49.577Z,3.17
2019-03-09T18:06:51.495Z,8.30
2019-03-09T18:09:53.501Z,4.23
2019-03-09T18:12:55.459Z,6.00
2019-03-09T18:15:57.790Z,2.50
2019-03-09T18:19:00.994Z,2.40
2019-03-09T18:22:03.806Z,3.17
2019-03-09T18:25:06.297Z,3.83
2019-03-09T18:28:08.894Z,4.60
2019-03-09T18:31:10.788Z,5.80
2019-03-09T18:34:12.757Z,6.90
2019-03-09T18:37:16.016Z,5.97
2019-03-09T18:40:20.912Z,3.50
2019-03-09T18:43:22.768Z,3.77
2019-03-09T18:46:25.946Z,4.00
2019-03-09T18:49:27.852Z,3.63
2019-03-09T18:52:29.851Z,4.37
2019-03-09T18:55:31.771Z,3.70
2019-03-09T18:58:33.762Z,6.27
2019-03-09T19:01:39.121Z,4.83
2019-03-09T19:04:41.046Z,5.70
2019-03-09T19:07:42.999Z,4.73
2019-03-09T19:10:45.422Z,5.37
2019-03-09T19:13:47.759Z,6.77
2019-03-09T19:16:49.653Z,8.43
2019-03-09T19:19:51.605Z,4.90
2019-03-09T19:22:54.260Z,8.20
2019-03-09T19:25:57.657Z,7.60
2019-03-09T19:28:59.566Z,8.10
2019-03-09T19:32:01.669Z,9.97
2019-03-09T19:35:07.007Z,12.07
2019-03-09T19:38:08.942Z,7.83
2019-03-09T19:41:11.800Z,10.43
2019-03-09T19:44:13.728Z,11.10
2019-03-09T19:47:15.727Z,11.00
2019-03-09T19:50:18.643Z,10.83
2019-03-09T19:53:22.390Z,11.90
2019-03-09T19:56:24.291Z,10.73
2019-03-09T19:59:28.751Z,8.03
2019-03-09T20:02:33.328Z,8.00
2019-03-09T20:05:35.238Z,7.40
2019-03-09T20:08:42.459Z,11.87
2019-03-09T20:11:46.275Z,10.27
2019-03-09T20:14:51.251Z,9.97
2019-03-09T20:17:53.456Z,8.57
2019-03-09T20:20:56.602Z,5.30
2019-03-09T20:23:58.612Z,6.63
2019-03-09T20:27:11.307Z,4.50
2019-03-09T20:30:15.833Z,7.17
2019-03-09T20:33:19.888Z,5.03
2019-03-09T20:36:22.104Z,8.73
2019-03-09T20:39:24.332Z,6.80
2019-03-09T20:42:28.286Z,5.50
2019-03-09T20:45:31.494Z,6.37
2019-03-09T20:48:35.852Z,2.80
2019-03-09T20:51:37.770Z,4.20
2019-03-09T20:54:39.999Z,4.27
2019-03-09T20:57:42.312Z,8.07
2019-03-09T21:00:45.337Z,3.97
2019-03-09T21:03:48.911Z,4.03
2019-03-09T21:06:51.115Z,4.43
2019-03-09T21:09:53.088Z,5.03
2019-03-09T21:13:07.680Z,4.77
2019-03-09T21:16:11.439Z,3.23
2019-03-09T21:19:13.739Z,4.73
2019-03-09T21:22:16.390Z,6.10
2019-03-09T21:25:18.425Z,6.30
2019-03-09T21:28:21.477Z,5.10
2019-03-09T21:31:23.346Z,4.90
2019-03-09T21:34:25.315Z,8.40
2019-03-09T21:37:27.243Z,2.63
2019-03-09T21:40:29.651Z,2.20
2019-03-09T21:43:33.353Z,3.33
2019-03-09T21:46:36.983Z,2.47
2019-03-09T21:49:39.024Z,3.90
2019-03-09T21:52:42.188Z,3.47
2019-03-09T21:55:44.161Z,4.90
2019-03-09T21:58:46.035Z,2.73
2019-03-09T22:01:47.970Z,2.00
2019-03-09T22:04:50.080Z,3.03
2019-03-09T22:07:52.039Z,3.53
2019-03-09T22:10:53.954Z,2.57
2019-03-09T22:13:55.927Z,7.33
2019-03-09T22:16:57.904Z,2.20
2019-03-09T22:19:59.795Z,1.20
2019-03-09T22:23:02.147Z,2.30
2019-03-09T22:26:04.094Z,3.20
2019-03-09T22:29:06.041Z,2.63
2019-03-09T22:32:07.995Z,2.70
2019-03-09T22:35:11.717Z,3.87
2019-03-09T22:38:15.119Z,2.27
2019-03-09T22:41:17.439Z,2.80
2019-03-09T22:44:19.322Z,3.90
2019-03-09T22:47:23.360Z,4.03
2019-03-09T22:50:25.815Z,1.90
2019-03-09T22:53:27.770Z,2.37
2019-03-09T22:56:29.750Z,5.40
2019-03-09T22:59:31.678Z,2.70
2019-03-09T23:02:33.625Z,3.00
2019-03-09T23:05:35.570Z,4.00
2019-03-09T23:08:37.796Z,1.90
2019-03-09T23:11:39.666Z,4.10
2019-03-09T23:14:41.559Z,1.77
2019-03-09T23:17:44.793Z,1.80
2019-03-09T23:20:46.748Z,3.40
2019-03-09T23:23:48.961Z,1.87
2019-03-09T23:26:50.936Z,2.23
2019-03-09T23:29:52.851Z,2.03
2019-03-09T23:32:54.873Z,2.80
2019-03-09T23:35:56.732Z,2.03
2019-03-09T23:38:58.698Z,2.23
2019-03-09T23:42:00.654Z,3.77
2019-03-09T23:45:03.424Z,4.43
2019-03-09T23:48:05.301Z,2.53
2019-03-09T23:51:07.310Z,7.10
2019-03-09T23:54:09.186Z,1.60
2019-03-09T23:57:11.158Z,1.87
